sensor_id;sensor_type;location;lat;lon;timestamp;P1;durP1;ratioP1;P2;durP2;ratioP2
66593;SDS011;53450;42.584;23.366;2023-12-20T00:00:57;10.03;;;4.67;;
66593;SDS011;53450;42.584;23.366;2023-12-20T00:03:23;8.13;;;4.83;;
66593;SDS011;53450;42.584;23.366;2023-12-20T00:05:49;6.37;;;3.80;;
66593;SDS011;53450;42.584;23.366;2023-12-20T00:08:15;6.07;;;3.80;;
66593;SDS011;53450;42.584;23.366;2023-12-20T00:10:41;5.03;;;3.27;;
66593;SDS011;53450;42.584;23.366;2023-12-20T00:13:06;4.63;;;2.93;;
66593;SDS011;53450;42.584;23.366;2023-12-20T00:15:33;3.77;;;2.70;;
66593;SDS011;53450;42.584;23.366;2023-12-20T00:17:59;2.80;;;2.60;;
66593;SDS011;53450;42.584;23.366;2023-12-20T00:20:26;4.03;;;2.83;;
66593;SDS011;53450;42.584;23.366;2023-12-20T00:22:51;8.10;;;4.20;;
66593;SDS011;53450;42.584;23.366;2023-12-20T00:25:17;5.43;;;3.80;;
66593;SDS011;53450;42.584;23.366;2023-12-20T00:27:43;3.63;;;3.03;;
66593;SDS011;53450;42.584;23.366;2023-12-20T00:30:09;5.17;;;3.60;;
66593;SDS011;53450;42.584;23.366;2023-12-20T00:32:35;7.80;;;3.40;;
66593;SDS011;53450;42.584;23.366;2023-12-20T00:35:01;5.60;;;3.30;;
66593;SDS011;53450;42.584;23.366;2023-12-20T00:37:26;3.10;;;2.70;;
66593;SDS011;53450;42.584;23.366;2023-12-20T00:39:52;4.20;;;3.20;;
66593;SDS011;53450;42.584;23.366;2023-12-20T00:42:18;7.90;;;3.10;;
66593;SDS011;53450;42.584;23.366;2023-12-20T00:44:44;2.90;;;1.90;;
66593;SDS011;53450;42.584;23.366;2023-12-20T00:47:09;3.50;;;2.00;;
66593;SDS011;53450;42.584;23.366;2023-12-20T00:49:35;3.83;;;2.27;;
66593;SDS011;53450;42.584;23.366;2023-12-20T00:52:01;4.37;;;2.20;;
66593;SDS011;53450;42.584;23.366;2023-12-20T00:54:26;14.83;;;6.93;;
66593;SDS011;53450;42.584;23.366;2023-12-20T00:56:52;23.67;;;9.40;;
66593;SDS011;53450;42.584;23.366;2023-12-20T00:59:17;22.13;;;9.17;;
66593;SDS011;53450;42.584;23.366;2023-12-20T01:01:43;20.37;;;9.13;;
66593;SDS011;53450;42.584;23.366;2023-12-20T01:04:09;17.43;;;9.87;;
66593;SDS011;53450;42.584;23.366;2023-12-20T01:06:35;9.37;;;6.97;;
66593;SDS011;53450;42.584;23.366;2023-12-20T01:09:00;11.27;;;5.97;;
66593;SDS011;53450;42.584;23.366;2023-12-20T01:11:26;3.93;;;3.17;;
66593;SDS011;53450;42.584;23.366;2023-12-20T01:13:51;3.87;;;2.90;;
66593;SDS011;53450;42.584;23.366;2023-12-20T01:16:17;3.97;;;2.13;;
66593;SDS011;53450;42.584;23.366;2023-12-20T01:18:43;2.50;;;2.30;;
66593;SDS011;53450;42.584;23.366;2023-12-20T01:21:08;6.47;;;3.97;;
66593;SDS011;53450;42.584;23.366;2023-12-20T01:23:34;2.50;;;2.30;;
66593;SDS011;53450;42.584;23.366;2023-12-20T01:25:59;2.37;;;1.80;;
66593;SDS011;53450;42.584;23.366;2023-12-20T01:28:25;1.70;;;1.60;;
66593;SDS011;53450;42.584;23.366;2023-12-20T01:30:51;1.60;;;1.50;;
66593;SDS011;53450;42.584;23.366;2023-12-20T01:33:17;1.77;;;1.67;;
66593;SDS011;53450;42.584;23.366;2023-12-20T01:35:43;1.70;;;1.60;;
66593;SDS011;53450;42.584;23.366;2023-12-20T01:38:09;2.10;;;1.70;;
66593;SDS011;53450;42.584;23.366;2023-12-20T01:40:34;2.60;;;2.40;;
66593;SDS011;53450;42.584;23.366;2023-12-20T01:43:01;5.47;;;2.60;;
66593;SDS011;53450;42.584;23.366;2023-12-20T01:45:27;2.70;;;2.30;;
66593;SDS011;53450;42.584;23.366;2023-12-20T01:47:56;3.20;;;2.70;;
66593;SDS011;53450;42.584;23.366;2023-12-20T01:50:23;4.77;;;3.67;;
66593;SDS011;53450;42.584;23.366;2023-12-20T01:52:49;6.30;;;4.20;;
66593;SDS011;53450;42.584;23.366;2023-12-20T01:55:18;2.20;;;2.00;;
66593;SDS011;53450;42.584;23.366;2023-12-20T01:57:45;3.57;;;2.17;;
66593;SDS011;53450;42.584;23.366;2023-12-20T02:00:12;2.43;;;2.23;;
66593;SDS011;53450;42.584;23.366;2023-12-20T02:02:40;2.23;;;1.80;;
66593;SDS011;53450;42.584;23.366;2023-12-20T02:05:06;2.37;;;2.17;;
66593;SDS011;53450;42.584;23.366;2023-12-20T02:07:32;2.33;;;2.13;;
66593;SDS011;53450;42.584;23.366;2023-12-20T02:10:01;2.37;;;2.17;;
66593;SDS011;53450;42.584;23.366;2023-12-20T02:12:27;2.60;;;1.87;;
66593;SDS011;53450;42.584;23.366;2023-12-20T02:14:52;1.90;;;1.80;;
66593;SDS011;53450;42.584;23.366;2023-12-20T02:17:21;2.23;;;2.00;;
66593;SDS011;53450;42.584;23.366;2023-12-20T02:19:48;3.00;;;2.10;;
66593;SDS011;53450;42.584;23.366;2023-12-20T02:22:14;3.87;;;2.53;;
66593;SDS011;53450;42.584;23.366;2023-12-20T02:24:40;2.27;;;2.10;;
66593;SDS011;53450;42.584;23.366;2023-12-20T02:27:06;1.93;;;1.83;;
66593;SDS011;53450;42.584;23.366;2023-12-20T02:29:33;1.90;;;1.80;;
66593;SDS011;53450;42.584;23.366;2023-12-20T02:31:59;3.53;;;2.27;;
66593;SDS011;53450;42.584;23.366;2023-12-20T02:34:25;2.10;;;1.90;;
66593;SDS011;53450;42.584;23.366;2023-12-20T02:36:51;1.53;;;1.50;;
66593;SDS011;53450;42.584;23.366;2023-12-20T02:39:16;2.00;;;1.80;;
66593;SDS011;53450;42.584;23.366;2023-12-20T02:41:43;2.03;;;1.87;;
66593;SDS011;53450;42.584;23.366;2023-12-20T02:44:08;1.83;;;1.50;;
66593;SDS011;53450;42.584;23.366;2023-12-20T02:46:34;1.50;;;1.40;;
66593;SDS011;53450;42.584;23.366;2023-12-20T02:49:00;1.60;;;1.50;;
66593;SDS011;53450;42.584;23.366;2023-12-20T02:51:25;2.23;;;1.80;;
66593;SDS011;53450;42.584;23.366;2023-12-20T02:53:51;3.10;;;2.30;;
66593;SDS011;53450;42.584;23.366;2023-12-20T02:56:16;2.37;;;2.20;;
66593;SDS011;53450;42.584;23.366;2023-12-20T02:58:42;3.13;;;2.83;;
66593;SDS011;53450;42.584;23.366;2023-12-20T03:03:43;2.50;;;1.70;;
66593;SDS011;53450;42.584;23.366;2023-12-20T03:06:09;2.27;;;2.10;;
66593;SDS011;53450;42.584;23.366;2023-12-20T03:08:34;1.80;;;1.70;;
66593;SDS011;53450;42.584;23.366;2023-12-20T03:11:00;2.00;;;1.90;;
66593;SDS011;53450;42.584;23.366;2023-12-20T03:13:25;4.13;;;2.90;;
66593;SDS011;53450;42.584;23.366;2023-12-20T03:15:51;8.47;;;4.53;;
66593;SDS011;53450;42.584;23.366;2023-12-20T03:18:16;10.57;;;5.63;;
66593;SDS011;53450;42.584;23.366;2023-12-20T03:20:43;4.63;;;3.07;;
66593;SDS011;53450;42.584;23.366;2023-12-20T03:23:09;3.67;;;3.27;;
66593;SDS011;53450;42.584;23.366;2023-12-20T03:25:34;4.67;;;2.60;;
66593;SDS011;53450;42.584;23.366;2023-12-20T03:28:00;6.67;;;3.63;;
66593;SDS011;53450;42.584;23.366;2023-12-20T03:30:25;2.93;;;2.73;;
66593;SDS011;53450;42.584;23.366;2023-12-20T03:32:51;4.80;;;2.80;;
66593;SDS011;53450;42.584;23.366;2023-12-20T03:35:16;4.37;;;2.17;;
66593;SDS011;53450;42.584;23.366;2023-12-20T03:37:42;2.63;;;2.23;;
66593;SDS011;53450;42.584;23.366;2023-12-20T03:40:07;2.60;;;2.40;;
66593;SDS011;53450;42.584;23.366;2023-12-20T03:42:33;2.97;;;2.60;;
66593;SDS011;53450;42.584;23.366;2023-12-20T03:44:59;2.87;;;2.40;;
66593;SDS011;53450;42.584;23.366;2023-12-20T03:47:24;4.00;;;2.90;;
66593;SDS011;53450;42.584;23.366;2023-12-20T03:49:50;3.13;;;2.57;;
66593;SDS011;53450;42.584;23.366;2023-12-20T03:52:16;3.33;;;2.60;;
66593;SDS011;53450;42.584;23.366;2023-12-20T03:54:41;3.97;;;3.23;;
66593;SDS011;53450;42.584;23.366;2023-12-20T03:57:07;3.87;;;3.30;;
66593;SDS011;53450;42.584;23.366;2023-12-20T03:59:36;3.50;;;3.20;;
66593;SDS011;53450;42.584;23.366;2023-12-20T04:02:02;4.07;;;2.40;;
66593;SDS011;53450;42.584;23.366;2023-12-20T04:04:29;2.50;;;2.30;;
66593;SDS011;53450;42.584;23.366;2023-12-20T04:06:54;3.10;;;2.53;;
66593;SDS011;53450;42.584;23.366;2023-12-20T04:09:20;4.37;;;3.10;;
66593;SDS011;53450;42.584;23.366;2023-12-20T04:11:45;139.67;;;38.17;;
66593;SDS011;53450;42.584;23.366;2023-12-20T04:14:11;41.07;;;13.67;;
66593;SDS011;53450;42.584;23.366;2023-12-20T04:16:36;22.93;;;9.33;;
66593;SDS011;53450;42.584;23.366;2023-12-20T04:19:02;5.83;;;3.70;;
66593;SDS011;53450;42.584;23.366;2023-12-20T04:21:28;4.20;;;3.40;;
66593;SDS011;53450;42.584;23.366;2023-12-20T04:23:53;4.07;;;3.07;;
66593;SDS011;53450;42.584;23.366;2023-12-20T04:26:19;2.70;;;2.50;;
66593;SDS011;53450;42.584;23.366;2023-12-20T04:28:44;4.87;;;3.00;;
66593;SDS011;53450;42.584;23.366;2023-12-20T04:31:10;6.53;;;2.37;;
66593;SDS011;53450;42.584;23.366;2023-12-20T04:33:36;10.30;;;3.43;;
66593;SDS011;53450;42.584;23.366;2023-12-20T04:36:01;6.87;;;4.90;;
66593;SDS011;53450;42.584;23.366;2023-12-20T04:38:27;4.87;;;4.20;;
66593;SDS011;53450;42.584;23.366;2023-12-20T04:40:52;2.70;;;2.50;;
66593;SDS011;53450;42.584;23.366;2023-12-20T04:43:18;5.33;;;4.17;;
66593;SDS011;53450;42.584;23.366;2023-12-20T04:45:44;8.63;;;5.30;;
66593;SDS011;53450;42.584;23.366;2023-12-20T04:48:09;4.93;;;4.33;;
66593;SDS011;53450;42.584;23.366;2023-12-20T04:50:35;4.80;;;4.00;;
66593;SDS011;53450;42.584;23.366;2023-12-20T04:53:00;4.00;;;3.03;;
66593;SDS011;53450;42.584;23.366;2023-12-20T04:55:26;2.63;;;2.43;;
66593;SDS011;53450;42.584;23.366;2023-12-20T04:57:51;4.70;;;3.70;;
66593;SDS011;53450;42.584;23.366;2023-12-20T05:00:17;4.37;;;3.97;;
66593;SDS011;53450;42.584;23.366;2023-12-20T05:02:43;5.53;;;3.60;;
66593;SDS011;53450;42.584;23.366;2023-12-20T05:05:08;8.40;;;6.00;;
66593;SDS011;53450;42.584;23.366;2023-12-20T05:07:34;8.20;;;7.40;;
66593;SDS011;53450;42.584;23.366;2023-12-20T05:10:00;6.10;;;5.17;;
66593;SDS011;53450;42.584;23.366;2023-12-20T05:12:25;7.83;;;5.97;;
66593;SDS011;53450;42.584;23.366;2023-12-20T05:14:51;7.37;;;5.73;;
66593;SDS011;53450;42.584;23.366;2023-12-20T05:17:17;4.57;;;4.13;;
66593;SDS011;53450;42.584;23.366;2023-12-20T05:19:43;4.47;;;4.07;;
66593;SDS011;53450;42.584;23.366;2023-12-20T05:22:09;5.60;;;4.97;;
66593;SDS011;53450;42.584;23.366;2023-12-20T05:24:35;6.17;;;5.57;;
66593;SDS011;53450;42.584;23.366;2023-12-20T05:27:24;7.60;;;6.80;;
66593;SDS011;53450;42.584;23.366;2023-12-20T05:29:50;4.83;;;4.33;;
66593;SDS011;53450;42.584;23.366;2023-12-20T05:32:15;5.97;;;3.20;;
66593;SDS011;53450;42.584;23.366;2023-12-20T05:34:42;3.40;;;3.10;;
66593;SDS011;53450;42.584;23.366;2023-12-20T05:37:07;2.03;;;1.90;;
66593;SDS011;53450;42.584;23.366;2023-12-20T05:39:33;3.40;;;3.10;;
66593;SDS011;53450;42.584;23.366;2023-12-20T05:41:58;3.17;;;2.80;;
66593;SDS011;53450;42.584;23.366;2023-12-20T05:44:25;8.60;;;5.70;;
66593;SDS011;53450;42.584;23.366;2023-12-20T05:46:50;9.30;;;6.03;;
66593;SDS011;53450;42.584;23.366;2023-12-20T05:49:16;5.63;;;4.90;;
66593;SDS011;53450;42.584;23.366;2023-12-20T05:51:41;6.47;;;4.00;;
66593;SDS011;53450;42.584;23.366;2023-12-20T05:54:07;10.77;;;6.83;;
66593;SDS011;53450;42.584;23.366;2023-12-20T05:56:34;8.00;;;5.43;;
66593;SDS011;53450;42.584;23.366;2023-12-20T05:58:59;9.40;;;6.50;;
66593;SDS011;53450;42.584;23.366;2023-12-20T06:01:25;5.67;;;4.40;;
66593;SDS011;53450;42.584;23.366;2023-12-20T06:03:50;12.43;;;7.20;;
66593;SDS011;53450;42.584;23.366;2023-12-20T06:06:16;22.77;;;12.37;;
66593;SDS011;53450;42.584;23.366;2023-12-20T06:08:43;24.23;;;11.53;;
66593;SDS011;53450;42.584;23.366;2023-12-20T06:11:08;10.90;;;6.90;;
66593;SDS011;53450;42.584;23.366;2023-12-20T06:13:34;9.30;;;6.70;;
66593;SDS011;53450;42.584;23.366;2023-12-20T06:16:00;8.70;;;5.30;;
66593;SDS011;53450;42.584;23.366;2023-12-20T06:18:26;6.20;;;4.70;;
66593;SDS011;53450;42.584;23.366;2023-12-20T06:20:52;13.17;;;7.37;;
66593;SDS011;53450;42.584;23.366;2023-12-20T06:23:17;9.77;;;5.90;;
66593;SDS011;53450;42.584;23.366;2023-12-20T06:25:43;18.13;;;10.20;;
66593;SDS011;53450;42.584;23.366;2023-12-20T06:28:09;10.20;;;6.87;;
66593;SDS011;53450;42.584;23.366;2023-12-20T06:30:35;10.83;;;6.93;;
66593;SDS011;53450;42.584;23.366;2023-12-20T06:33:01;11.17;;;5.50;;
66593;SDS011;53450;42.584;23.366;2023-12-20T06:35:27;8.80;;;5.27;;
66593;SDS011;53450;42.584;23.366;2023-12-20T06:39:04;7.83;;;4.63;;
66593;SDS011;53450;42.584;23.366;2023-12-20T06:41:30;7.67;;;4.30;;
66593;SDS011;53450;42.584;23.366;2023-12-20T06:43:55;14.47;;;8.20;;
66593;SDS011;53450;42.584;23.366;2023-12-20T06:46:21;8.20;;;5.20;;
66593;SDS011;53450;42.584;23.366;2023-12-20T06:48:46;9.30;;;6.33;;
66593;SDS011;53450;42.584;23.366;2023-12-20T06:51:15;9.90;;;6.40;;
66593;SDS011;53450;42.584;23.366;2023-12-20T06:53:42;13.20;;;6.30;;
66593;SDS011;53450;42.584;23.366;2023-12-20T06:56:08;8.93;;;6.23;;
66593;SDS011;53450;42.584;23.366;2023-12-20T06:58:35;11.40;;;5.87;;
66593;SDS011;53450;42.584;23.366;2023-12-20T07:01:02;9.17;;;5.80;;
66593;SDS011;53450;42.584;23.366;2023-12-20T07:03:29;16.13;;;7.17;;
66593;SDS011;53450;42.584;23.366;2023-12-20T07:05:55;9.70;;;6.60;;
66593;SDS011;53450;42.584;23.366;2023-12-20T07:08:20;9.40;;;7.13;;
66593;SDS011;53450;42.584;23.366;2023-12-20T07:10:46;10.73;;;7.37;;
66593;SDS011;53450;42.584;23.366;2023-12-20T07:13:11;14.93;;;9.60;;
66593;SDS011;53450;42.584;23.366;2023-12-20T07:15:37;13.20;;;9.03;;
66593;SDS011;53450;42.584;23.366;2023-12-20T07:18:03;18.73;;;8.77;;
66593;SDS011;53450;42.584;23.366;2023-12-20T07:20:30;10.50;;;7.60;;
66593;SDS011;53450;42.584;23.366;2023-12-20T07:22:58;23.40;;;8.83;;
66593;SDS011;53450;42.584;23.366;2023-12-20T07:25:23;15.73;;;9.53;;
66593;SDS011;53450;42.584;23.366;2023-12-20T07:27:49;18.13;;;11.03;;
66593;SDS011;53450;42.584;23.366;2023-12-20T07:30:14;23.17;;;12.13;;
66593;SDS011;53450;42.584;23.366;2023-12-20T07:32:40;15.77;;;9.80;;
66593;SDS011;53450;42.584;23.366;2023-12-20T07:35:06;12.17;;;6.60;;
66593;SDS011;53450;42.584;23.366;2023-12-20T07:37:31;9.43;;;6.40;;
66593;SDS011;53450;42.584;23.366;2023-12-20T07:39:57;10.00;;;6.87;;
66593;SDS011;53450;42.584;23.366;2023-12-20T07:43:43;37.23;;;16.80;;
66593;SDS011;53450;42.584;23.366;2023-12-20T07:46:09;36.50;;;15.03;;
66593;SDS011;53450;42.584;23.366;2023-12-20T07:48:35;39.00;;;15.67;;
66593;SDS011;53450;42.584;23.366;2023-12-20T07:51:01;27.83;;;13.47;;
66593;SDS011;53450;42.584;23.366;2023-12-20T07:53:27;26.87;;;12.70;;
66593;SDS011;53450;42.584;23.366;2023-12-20T07:55:53;23.50;;;12.57;;
66593;SDS011;53450;42.584;23.366;2023-12-20T07:58:19;32.43;;;13.13;;
66593;SDS011;53450;42.584;23.366;2023-12-20T08:00:45;35.33;;;22.43;;
66593;SDS011;53450;42.584;23.366;2023-12-20T08:03:10;52.97;;;28.77;;
66593;SDS011;53450;42.584;23.366;2023-12-20T08:05:38;52.90;;;30.83;;
66593;SDS011;53450;42.584;23.366;2023-12-20T08:08:06;68.90;;;33.45;;
66593;SDS011;53450;42.584;23.366;2023-12-20T08:10:32;64.03;;;35.00;;
66593;SDS011;53450;42.584;23.366;2023-12-20T08:12:58;74.73;;;40.03;;
66593;SDS011;53450;42.584;23.366;2023-12-20T08:16:20;63.27;;;37.33;;
66593;SDS011;53450;42.584;23.366;2023-12-20T08:18:47;54.20;;;29.43;;
66593;SDS011;53450;42.584;23.366;2023-12-20T08:21:12;25.77;;;15.33;;
66593;SDS011;53450;42.584;23.366;2023-12-20T08:23:38;24.27;;;14.23;;
66593;SDS011;53450;42.584;23.366;2023-12-20T08:26:06;46.83;;;23.07;;
66593;SDS011;53450;42.584;23.366;2023-12-20T08:28:33;82.60;;;41.97;;
66593;SDS011;53450;42.584;23.366;2023-12-20T08:30:58;59.37;;;31.73;;
66593;SDS011;53450;42.584;23.366;2023-12-20T08:33:24;59.43;;;33.10;;
66593;SDS011;53450;42.584;23.366;2023-12-20T08:35:50;61.33;;;33.00;;
66593;SDS011;53450;42.584;23.366;2023-12-20T08:38:15;61.17;;;32.97;;
66593;SDS011;53450;42.584;23.366;2023-12-20T08:40:42;84.53;;;44.40;;
66593;SDS011;53450;42.584;23.366;2023-12-20T08:43:08;77.10;;;39.73;;
66593;SDS011;53450;42.584;23.366;2023-12-20T08:45:34;69.20;;;36.17;;
66593;SDS011;53450;42.584;23.366;2023-12-20T08:48:00;55.27;;;31.83;;
66593;SDS011;53450;42.584;23.366;2023-12-20T08:50:25;48.07;;;28.17;;
66593;SDS011;53450;42.584;23.366;2023-12-20T08:52:51;50.97;;;30.13;;
66593;SDS011;53450;42.584;23.366;2023-12-20T08:55:16;50.30;;;28.98;;
66593;SDS011;53450;42.584;23.366;2023-12-20T08:57:43;49.78;;;27.52;;
66593;SDS011;53450;42.584;23.366;2023-12-20T09:00:09;52.00;;;30.05;;
66593;SDS011;53450;42.584;23.366;2023-12-20T09:02:35;63.53;;;34.08;;
66593;SDS011;53450;42.584;23.366;2023-12-20T09:05:01;61.10;;;37.65;;
66593;SDS011;53450;42.584;23.366;2023-12-20T09:07:27;94.07;;;48.42;;
66593;SDS011;53450;42.584;23.366;2023-12-20T09:09:55;126.10;;;55.38;;
66593;SDS011;53450;42.584;23.366;2023-12-20T09:12:21;138.98;;;57.70;;
66593;SDS011;53450;42.584;23.366;2023-12-20T09:14:47;137.02;;;62.60;;
66593;SDS011;53450;42.584;23.366;2023-12-20T09:17:13;113.72;;;54.65;;
66593;SDS011;53450;42.584;23.366;2023-12-20T09:19:39;115.15;;;53.20;;
66593;SDS011;53450;42.584;23.366;2023-12-20T09:22:06;109.95;;;50.72;;
66593;SDS011;53450;42.584;23.366;2023-12-20T09:24:32;36.08;;;19.52;;
66593;SDS011;53450;42.584;23.366;2023-12-20T09:26:57;36.25;;;21.23;;
66593;SDS011;53450;42.584;23.366;2023-12-20T09:29:23;40.25;;;22.95;;
66593;SDS011;53450;42.584;23.366;2023-12-20T09:31:49;43.20;;;24.92;;
66593;SDS011;53450;42.584;23.366;2023-12-20T09:34:15;48.72;;;27.23;;
66593;SDS011;53450;42.584;23.366;2023-12-20T09:36:42;51.85;;;28.55;;
66593;SDS011;53450;42.584;23.366;2023-12-20T09:39:12;57.60;;;33.55;;
66593;SDS011;53450;42.584;23.366;2023-12-20T09:41:40;62.22;;;35.50;;
66593;SDS011;53450;42.584;23.366;2023-12-20T09:44:08;56.50;;;34.40;;
66593;SDS011;53450;42.584;23.366;2023-12-20T09:46:39;58.42;;;34.97;;
66593;SDS011;53450;42.584;23.366;2023-12-20T09:49:08;48.08;;;27.92;;
66593;SDS011;53450;42.584;23.366;2023-12-20T09:51:36;40.30;;;24.92;;
66593;SDS011;53450;42.584;23.366;2023-12-20T09:54:02;21.13;;;13.98;;
66593;SDS011;53450;42.584;23.366;2023-12-20T09:56:29;14.93;;;9.13;;
66593;SDS011;53450;42.584;23.366;2023-12-20T09:58:55;10.77;;;7.53;;
66593;SDS011;53450;42.584;23.366;2023-12-20T10:01:21;4.97;;;3.88;;
66593;SDS011;53450;42.584;23.366;2023-12-20T10:03:50;5.93;;;4.57;;
66593;SDS011;53450;42.584;23.366;2023-12-20T10:06:17;5.65;;;4.43;;
66593;SDS011;53450;42.584;23.366;2023-12-20T10:08:42;9.57;;;7.22;;
66593;SDS011;53450;42.584;23.366;2023-12-20T10:11:08;11.20;;;7.25;;
66593;SDS011;53450;42.584;23.366;2023-12-20T10:13:34;5.60;;;4.47;;
66593;SDS011;53450;42.584;23.366;2023-12-20T10:16:05;12.35;;;6.25;;
66593;SDS011;53450;42.584;23.366;2023-12-20T10:18:31;15.13;;;9.32;;
66593;SDS011;53450;42.584;23.366;2023-12-20T10:20:57;16.27;;;7.78;;
66593;SDS011;53450;42.584;23.366;2023-12-20T10:23:23;10.90;;;6.35;;
66593;SDS011;53450;42.584;23.366;2023-12-20T10:25:55;8.55;;;3.70;;
66593;SDS011;53450;42.584;23.366;2023-12-20T10:28:23;6.35;;;3.80;;
66593;SDS011;53450;42.584;23.366;2023-12-20T10:30:52;4.68;;;3.17;;
66593;SDS011;53450;42.584;23.366;2023-12-20T10:33:31;6.55;;;3.30;;
66593;SDS011;53450;42.584;23.366;2023-12-20T10:36:00;5.32;;;3.53;;
66593;SDS011;53450;42.584;23.366;2023-12-20T10:38:25;5.50;;;4.10;;
66593;SDS011;53450;42.584;23.366;2023-12-20T10:40:54;5.70;;;4.22;;
66593;SDS011;53450;42.584;23.366;2023-12-20T10:43:24;6.18;;;4.10;;
66593;SDS011;53450;42.584;23.366;2023-12-20T10:45:51;10.98;;;6.45;;
66593;SDS011;53450;42.584;23.366;2023-12-20T10:48:17;7.20;;;5.90;;
66593;SDS011;53450;42.584;23.366;2023-12-20T10:50:43;41.35;;;21.88;;
66593;SDS011;53450;42.584;23.366;2023-12-20T10:54:43;8.20;;;5.00;;
66593;SDS011;53450;42.584;23.366;2023-12-20T10:57:10;22.48;;;11.60;;
66593;SDS011;53450;42.584;23.366;2023-12-20T10:59:36;9.20;;;4.97;;
66593;SDS011;53450;42.584;23.366;2023-12-20T11:02:04;6.80;;;4.68;;
66593;SDS011;53450;42.584;23.366;2023-12-20T11:07:39;163.77;;;79.70;;
66593;SDS011;53450;42.584;23.366;2023-12-20T11:10:20;13.77;;;8.18;;
66593;SDS011;53450;42.584;23.366;2023-12-20T11:13:00;36.45;;;17.73;;
66593;SDS011;53450;42.584;23.366;2023-12-20T11:15:35;47.25;;;23.15;;
66593;SDS011;53450;42.584;23.366;2023-12-20T11:18:02;27.80;;;15.55;;
66593;SDS011;53450;42.584;23.366;2023-12-20T11:20:39;19.65;;;11.98;;
66593;SDS011;53450;42.584;23.366;2023-12-20T11:23:06;18.98;;;9.50;;
66593;SDS011;53450;42.584;23.366;2023-12-20T11:25:48;15.85;;;9.48;;
66593;SDS011;53450;42.584;23.366;2023-12-20T11:28:20;18.85;;;10.68;;
66593;SDS011;53450;42.584;23.366;2023-12-20T11:33:16;15.07;;;8.98;;
66593;SDS011;53450;42.584;23.366;2023-12-20T11:36:59;18.60;;;9.60;;
66593;SDS011;53450;42.584;23.366;2023-12-20T11:41:01;32.03;;;16.88;;
66593;SDS011;53450;42.584;23.366;2023-12-20T11:43:36;31.80;;;16.52;;
66593;SDS011;53450;42.584;23.366;2023-12-20T11:46:06;26.52;;;13.77;;
66593;SDS011;53450;42.584;23.366;2023-12-20T11:48:37;31.27;;;16.02;;
66593;SDS011;53450;42.584;23.366;2023-12-20T11:54:57;19.65;;;8.95;;
66593;SDS011;53450;42.584;23.366;2023-12-20T11:57:22;13.00;;;8.30;;
66593;SDS011;53450;42.584;23.366;2023-12-20T11:59:48;20.40;;;11.30;;
66593;SDS011;53450;42.584;23.366;2023-12-20T12:02:14;17.73;;;8.65;;
66593;SDS011;53450;42.584;23.366;2023-12-20T12:04:43;14.68;;;8.38;;
66593;SDS011;53450;42.584;23.366;2023-12-20T12:07:08;21.33;;;12.18;;
66593;SDS011;53450;42.584;23.366;2023-12-20T12:09:34;23.50;;;12.00;;
66593;SDS011;53450;42.584;23.366;2023-12-20T12:12:00;13.52;;;7.82;;
66593;SDS011;53450;42.584;23.366;2023-12-20T12:14:26;18.27;;;10.77;;
66593;SDS011;53450;42.584;23.366;2023-12-20T12:16:52;17.70;;;11.18;;
66593;SDS011;53450;42.584;23.366;2023-12-20T12:19:22;29.63;;;17.45;;
66593;SDS011;53450;42.584;23.366;2023-12-20T12:21:49;21.40;;;13.68;;
66593;SDS011;53450;42.584;23.366;2023-12-20T12:26:24;17.05;;;11.18;;
66593;SDS011;53450;42.584;23.366;2023-12-20T12:28:50;15.90;;;9.90;;
66593;SDS011;53450;42.584;23.366;2023-12-20T12:31:16;14.93;;;9.80;;
66593;SDS011;53450;42.584;23.366;2023-12-20T12:33:41;15.43;;;10.00;;
66593;SDS011;53450;42.584;23.366;2023-12-20T12:37:01;14.25;;;9.30;;
66593;SDS011;53450;42.584;23.366;2023-12-20T12:39:27;20.77;;;10.48;;
66593;SDS011;53450;42.584;23.366;2023-12-20T12:41:55;16.02;;;10.43;;
66593;SDS011;53450;42.584;23.366;2023-12-20T12:44:22;11.90;;;8.10;;
66593;SDS011;53450;42.584;23.366;2023-12-20T12:46:50;13.15;;;8.55;;
66593;SDS011;53450;42.584;23.366;2023-12-20T12:49:20;12.57;;;7.75;;
66593;SDS011;53450;42.584;23.366;2023-12-20T12:51:46;12.35;;;7.60;;
66593;SDS011;53450;42.584;23.366;2023-12-20T12:54:12;22.33;;;12.48;;
66593;SDS011;53450;42.584;23.366;2023-12-20T12:57:41;17.10;;;9.15;;
66593;SDS011;53450;42.584;23.366;2023-12-20T13:00:07;15.93;;;8.65;;
66593;SDS011;53450;42.584;23.366;2023-12-20T13:02:34;12.40;;;7.65;;
66593;SDS011;53450;42.584;23.366;2023-12-20T13:04:59;7.78;;;5.18;;
66593;SDS011;53450;42.584;23.366;2023-12-20T13:07:27;14.18;;;7.57;;
66593;SDS011;53450;42.584;23.366;2023-12-20T13:09:53;16.38;;;7.38;;
66593;SDS011;53450;42.584;23.366;2023-12-20T13:12:19;12.20;;;7.38;;
66593;SDS011;53450;42.584;23.366;2023-12-20T13:14:44;12.52;;;8.43;;
66593;SDS011;53450;42.584;23.366;2023-12-20T13:17:10;13.70;;;8.48;;
66593;SDS011;53450;42.584;23.366;2023-12-20T13:19:36;11.05;;;7.57;;
66593;SDS011;53450;42.584;23.366;2023-12-20T13:22:01;15.35;;;8.15;;
66593;SDS011;53450;42.584;23.366;2023-12-20T13:24:27;11.68;;;6.95;;
66593;SDS011;53450;42.584;23.366;2023-12-20T13:26:52;13.75;;;8.43;;
66593;SDS011;53450;42.584;23.366;2023-12-20T13:29:18;22.20;;;12.98;;
66593;SDS011;53450;42.584;23.366;2023-12-20T13:31:44;50.28;;;31.88;;
66593;SDS011;53450;42.584;23.366;2023-12-20T13:34:09;42.15;;;27.25;;
66593;SDS011;53450;42.584;23.366;2023-12-20T13:36:35;43.55;;;25.42;;
66593;SDS011;53450;42.584;23.366;2023-12-20T13:39:01;57.17;;;27.63;;
66593;SDS011;53450;42.584;23.366;2023-12-20T13:41:29;48.83;;;25.63;;
66593;SDS011;53450;42.584;23.366;2023-12-20T13:43:55;36.85;;;22.25;;
66593;SDS011;53450;42.584;23.366;2023-12-20T13:46:20;64.53;;;23.30;;
66593;SDS011;53450;42.584;23.366;2023-12-20T13:48:46;32.22;;;19.50;;
66593;SDS011;53450;42.584;23.366;2023-12-20T13:51:12;38.28;;;19.25;;
66593;SDS011;53450;42.584;23.366;2023-12-20T13:53:37;32.90;;;17.92;;
66593;SDS011;53450;42.584;23.366;2023-12-20T13:56:03;31.73;;;18.13;;
66593;SDS011;53450;42.584;23.366;2023-12-20T13:58:29;44.53;;;20.98;;
66593;SDS011;53450;42.584;23.366;2023-12-20T14:00:55;237.70;;;81.88;;
66593;SDS011;53450;42.584;23.366;2023-12-20T14:03:24;211.95;;;84.28;;
66593;SDS011;53450;42.584;23.366;2023-12-20T14:05:49;162.50;;;61.65;;
66593;SDS011;53450;42.584;23.366;2023-12-20T14:08:15;131.52;;;48.42;;
66593;SDS011;53450;42.584;23.366;2023-12-20T14:10:40;145.45;;;54.40;;
66593;SDS011;53450;42.584;23.366;2023-12-20T14:13:06;136.52;;;51.53;;
66593;SDS011;53450;42.584;23.366;2023-12-20T14:15:31;227.90;;;81.50;;
66593;SDS011;53450;42.584;23.366;2023-12-20T14:18:05;184.18;;;69.53;;
66593;SDS011;53450;42.584;23.366;2023-12-20T14:20:34;155.50;;;57.60;;
66593;SDS011;53450;42.584;23.366;2023-12-20T14:23:03;149.23;;;55.35;;
66593;SDS011;53450;42.584;23.366;2023-12-20T14:25:29;144.75;;;51.17;;
66593;SDS011;53450;42.584;23.366;2023-12-20T14:27:54;147.60;;;53.35;;
66593;SDS011;53450;42.584;23.366;2023-12-20T14:30:21;121.00;;;43.30;;
66593;SDS011;53450;42.584;23.366;2023-12-20T14:32:46;107.40;;;42.35;;
66593;SDS011;53450;42.584;23.366;2023-12-20T14:35:13;185.48;;;68.70;;
66593;SDS011;53450;42.584;23.366;2023-12-20T14:37:39;112.95;;;44.08;;
66593;SDS011;53450;42.584;23.366;2023-12-20T14:40:06;61.35;;;27.20;;
66593;SDS011;53450;42.584;23.366;2023-12-20T14:42:35;170.35;;;55.67;;